createdAt,value
2023-03-20T00:01:57.448Z,12.00
2023-03-20T00:04:26.266Z,12.00
2023-03-20T00:06:54.754Z,12.10
2023-03-20T00:09:23.224Z,12.00
2023-03-20T00:11:52.715Z,12.00
2023-03-20T00:14:24.701Z,12.00
2023-03-20T00:16:53.516Z,12.00
2023-03-20T00:19:23.336Z,12.00
2023-03-20T00:21:52.509Z,12.00
2023-03-20T00:24:20.938Z,12.00
2023-03-20T00:26:49.862Z,11.90
2023-03-20T00:29:21.754Z,11.90
2023-03-20T00:31:51.897Z,11.90
2023-03-20T00:34:22.267Z,11.80
2023-03-20T00:36:50.975Z,11.80
2023-03-20T00:39:19.754Z,11.80
2023-03-20T00:41:50.043Z,11.90
2023-03-20T00:44:21.743Z,11.90
2023-03-20T00:46:53.202Z,11.90
2023-03-20T00:49:23.808Z,11.80
2023-03-20T00:51:52.378Z,11.80
2023-03-20T00:54:20.797Z,11.70
2023-03-20T00:56:53.079Z,11.70
2023-03-20T00:59:22.877Z,11.60
2023-03-20T01:01:52.818Z,11.60
2023-03-20T01:04:21.693Z,11.60
2023-03-20T01:06:50.169Z,11.70
2023-03-20T01:09:18.618Z,11.80
2023-03-20T01:11:47.302Z,11.80
2023-03-20T01:14:18.075Z,11.90
2023-03-20T01:16:46.694Z,11.90
2023-03-20T01:19:16.996Z,11.90
2023-03-20T01:21:45.501Z,12.00
2023-03-20T01:24:13.879Z,12.00
2023-03-20T01:26:43.285Z,12.00
2023-03-20T01:29:18.115Z,12.00
2023-03-20T01:31:46.781Z,12.00
2023-03-20T01:34:17.526Z,12.00
2023-03-20T01:36:47.976Z,12.00
2023-03-20T01:39:17.105Z,12.00
2023-03-20T01:41:45.929Z,12.00
2023-03-20T01:44:19.161Z,12.00
2023-03-20T01:46:47.735Z,12.00
2023-03-20T01:49:34.411Z,12.00
2023-03-20T01:52:04.308Z,12.10
2023-03-20T01:54:34.924Z,12.00
2023-03-20T01:57:05.357Z,12.00
2023-03-20T01:59:35.779Z,12.00
2023-03-20T02:02:05.578Z,12.00
2023-03-20T02:04:35.816Z,12.10
2023-03-20T02:07:06.510Z,12.00
2023-03-20T02:09:34.918Z,12.10
2023-03-20T02:12:03.873Z,12.10
2023-03-20T02:14:33.168Z,12.00
2023-03-20T02:17:01.727Z,12.10
2023-03-20T02:19:31.834Z,12.10
2023-03-20T02:22:09.764Z,12.10
2023-03-20T02:24:58.854Z,12.10
2023-03-20T02:27:32.361Z,12.10
2023-03-20T02:30:18.384Z,12.10
2023-03-20T02:33:04.399Z,12.00
2023-03-20T02:35:53.595Z,12.00
2023-03-20T02:38:28.610Z,11.90
2023-03-20T02:41:01.459Z,11.80
2023-03-20T02:43:36.434Z,11.80
2023-03-20T02:46:07.692Z,11.70
2023-03-20T02:48:41.146Z,11.60
2023-03-20T02:51:13.542Z,11.60
2023-03-20T02:53:48.475Z,11.70
2023-03-20T02:56:20.241Z,11.70
2023-03-20T02:58:50.769Z,11.70
2023-03-20T03:01:21.498Z,11.80
2023-03-20T03:03:51.593Z,11.80
2023-03-20T03:06:23.105Z,11.80
2023-03-20T03:08:55.385Z,11.90
2023-03-20T03:11:24.441Z,11.90
2023-03-20T03:13:54.260Z,11.90
2023-03-20T03:16:25.488Z,11.90
2023-03-20T03:18:58.475Z,11.90
2023-03-20T03:21:28.431Z,11.90
2023-03-20T03:23:58.260Z,11.90
2023-03-20T03:26:27.780Z,11.90
2023-03-20T03:28:58.344Z,11.90
2023-03-20T03:31:27.263Z,11.90
2023-03-20T03:33:56.766Z,11.90
2023-03-20T03:36:30.752Z,11.90
2023-03-20T03:39:01.759Z,11.90
2023-03-20T03:41:32.795Z,11.90
2023-03-20T03:44:08.854Z,11.90
2023-03-20T03:46:44.074Z,11.90
2023-03-20T03:49:16.384Z,11.90
2023-03-20T03:51:47.075Z,11.90
2023-03-20T03:54:18.798Z,11.80
2023-03-20T03:56:48.973Z,11.70
2023-03-20T03:59:20.465Z,11.60
2023-03-20T04:01:49.154Z,11.50
2023-03-20T04:04:19.474Z,11.40
2023-03-20T04:06:48.973Z,11.40
2023-03-20T04:09:18.799Z,11.50
2023-03-20T04:11:50.874Z,11.40
2023-03-20T04:14:19.511Z,11.50
2023-03-20T04:16:48.711Z,11.50
2023-03-20T04:19:17.220Z,11.50
2023-03-20T04:21:46.068Z,11.60
2023-03-20T04:24:15.362Z,11.60
2023-03-20T04:26:45.143Z,11.60
2023-03-20T04:29:13.550Z,11.70
2023-03-20T04:31:42.066Z,11.70
2023-03-20T04:34:10.929Z,11.80
2023-03-20T04:36:39.309Z,11.80
2023-03-20T04:39:07.858Z,11.80
2023-03-20T04:41:36.211Z,11.90
2023-03-20T04:44:06.305Z,11.90
2023-03-20T04:46:34.729Z,11.90
2023-03-20T04:49:03.182Z,11.90
2023-03-20T04:51:31.558Z,12.00
2023-03-20T04:53:59.975Z,12.00
2023-03-20T04:56:28.360Z,11.90
2023-03-20T04:58:56.782Z,12.00
2023-03-20T05:01:26.776Z,11.90
2023-03-20T05:04:00.710Z,12.00
2023-03-20T05:06:29.232Z,12.00
2023-03-20T05:08:59.167Z,12.00
2023-03-20T05:11:27.778Z,12.00
2023-03-20T05:13:56.279Z,12.00
2023-03-20T05:16:26.108Z,12.00
2023-03-20T05:18:54.475Z,12.00
2023-03-20T05:21:22.889Z,11.90
2023-03-20T05:23:51.247Z,11.90
2023-03-20T05:26:19.726Z,11.90
2023-03-20T05:28:48.127Z,12.00
2023-03-20T05:31:16.701Z,11.90
2023-03-20T05:33:46.618Z,11.90
2023-03-20T05:36:15.086Z,11.90
2023-03-20T05:38:43.475Z,12.00
2023-03-20T05:41:11.958Z,11.90
2023-03-20T05:43:40.318Z,12.00
2023-03-20T05:46:08.740Z,12.00
2023-03-20T05:48:37.165Z,12.00
2023-03-20T05:51:07.440Z,12.00
2023-03-20T05:53:35.846Z,12.00
2023-03-20T05:56:04.446Z,12.00
2023-03-20T05:58:32.853Z,12.10
2023-03-20T06:01:01.264Z,12.10
2023-03-20T06:03:29.826Z,12.10
2023-03-20T06:05:58.274Z,12.00
2023-03-20T06:08:28.116Z,12.10
2023-03-20T06:10:56.594Z,12.10
2023-03-20T06:13:25.067Z,12.10
2023-03-20T06:15:53.554Z,12.10
2023-03-20T06:18:21.985Z,12.00
2023-03-20T06:20:53.455Z,12.10
2023-03-20T06:23:21.976Z,12.10
2023-03-20T06:25:51.787Z,12.10
2023-03-20T06:28:20.433Z,12.10
2023-03-20T06:30:48.965Z,12.10
2023-03-20T06:33:17.479Z,12.20
2023-03-20T06:35:46.688Z,12.20
2023-03-20T06:38:15.298Z,12.20
2023-03-20T06:40:45.246Z,12.20
2023-03-20T06:43:15.117Z,12.20
2023-03-20T06:45:43.576Z,12.30
2023-03-20T06:48:12.395Z,12.30
2023-03-20T06:50:41.030Z,12.30
2023-03-20T06:53:09.408Z,12.30
2023-03-20T06:55:38.241Z,12.40
2023-03-20T06:58:06.833Z,12.40
2023-03-20T07:00:37.737Z,12.50
2023-03-20T07:03:06.164Z,12.30
2023-03-20T07:05:34.756Z,12.40
2023-03-20T07:08:03.385Z,12.30
2023-03-20T07:10:32.235Z,12.30
2023-03-20T07:13:01.194Z,12.30
2023-03-20T07:15:30.506Z,12.30
2023-03-20T07:18:00.295Z,12.30
2023-03-20T07:20:28.927Z,12.40
2023-03-20T07:22:57.432Z,12.50
2023-03-20T07:25:39.668Z,12.60
2023-03-20T07:28:10.467Z,12.70
2023-03-20T07:30:38.933Z,12.80
2023-03-20T07:33:08.863Z,12.80
2023-03-20T07:35:39.684Z,12.90
2023-03-20T07:38:08.314Z,13.00
2023-03-20T07:40:36.790Z,13.10
2023-03-20T07:43:05.476Z,13.20
2023-03-20T07:45:34.069Z,13.20
2023-03-20T07:48:02.663Z,13.20
2023-03-20T07:50:32.537Z,13.20
2023-03-20T07:53:01.082Z,13.10
2023-03-20T07:55:29.449Z,13.10
2023-03-20T07:57:57.855Z,13.20
2023-03-20T08:00:28.215Z,13.20
2023-03-20T08:02:58.289Z,13.30
2023-03-20T08:05:27.417Z,13.40
2023-03-20T08:07:57.570Z,13.40
2023-03-20T08:10:26.326Z,13.40
2023-03-20T08:12:54.813Z,13.40
2023-03-20T08:15:23.257Z,13.40
2023-03-20T08:17:51.722Z,13.40
2023-03-20T08:20:20.229Z,13.50
2023-03-20T08:22:49.759Z,13.60
2023-03-20T08:25:19.708Z,13.60
2023-03-20T08:27:48.112Z,13.70
2023-03-20T08:30:16.664Z,13.60
2023-03-20T08:32:45.176Z,13.70
2023-03-20T08:35:29.629Z,13.70
2023-03-20T08:38:00.976Z,13.70
2023-03-20T08:40:30.886Z,13.70
2023-03-20T08:42:59.601Z,13.80
2023-03-20T08:45:28.027Z,13.80
2023-03-20T08:47:56.710Z,13.90
2023-03-20T08:50:25.189Z,13.80
2023-03-20T08:52:53.981Z,13.80
2023-03-20T08:55:22.402Z,13.80
2023-03-20T08:57:53.232Z,13.90
2023-03-20T09:00:22.453Z,13.80
2023-03-20T09:02:51.784Z,13.90
2023-03-20T09:05:20.281Z,13.90
2023-03-20T09:07:48.709Z,13.90
2023-03-20T09:10:17.152Z,13.80
2023-03-20T09:12:45.670Z,14.00
2023-03-20T09:15:15.438Z,14.00
2023-03-20T09:17:43.832Z,13.90
2023-03-20T09:20:12.737Z,14.00
2023-03-20T09:22:43.849Z,14.00
2023-03-20T09:25:12.432Z,14.00
2023-03-20T09:27:41.133Z,14.00
2023-03-20T09:30:10.885Z,14.10
2023-03-20T09:32:40.821Z,14.10
2023-03-20T09:35:09.717Z,14.20
2023-03-20T09:37:38.122Z,14.20
2023-03-20T09:40:07.169Z,14.20
2023-03-20T09:42:42.543Z,14.40
2023-03-20T09:45:13.057Z,14.40
2023-03-20T09:47:46.443Z,14.40
2023-03-20T09:50:22.540Z,14.40
2023-03-20T09:52:55.535Z,14.20
2023-03-20T09:55:26.714Z,14.40
2023-03-20T09:57:57.846Z,14.50
2023-03-20T10:00:27.785Z,14.40
2023-03-20T10:03:00.327Z,14.40
2023-03-20T10:05:29.642Z,14.30
2023-03-20T10:07:59.286Z,14.40
2023-03-20T10:10:31.575Z,14.30
2023-03-20T10:13:04.298Z,14.20
2023-03-20T10:15:39.871Z,14.20
2023-03-20T10:18:14.063Z,14.10
2023-03-20T10:20:44.114Z,14.10
2023-03-20T10:23:17.698Z,14.00
2023-03-20T10:25:47.658Z,14.00
2023-03-20T10:28:19.192Z,14.10
2023-03-20T10:30:52.328Z,14.20
2023-03-20T10:33:27.370Z,14.30
2023-03-20T10:36:03.036Z,14.10
2023-03-20T10:38:39.112Z,14.10
2023-03-20T10:41:11.301Z,14.10
2023-03-20T10:43:43.381Z,14.00
2023-03-20T10:46:13.576Z,14.00
2023-03-20T10:48:45.594Z,14.00
2023-03-20T10:51:15.953Z,14.00
2023-03-20T10:53:47.698Z,13.90
2023-03-20T10:56:17.787Z,13.90
2023-03-20T10:58:48.059Z,14.10
2023-03-20T11:01:16.614Z,14.10
2023-03-20T11:03:46.487Z,14.20
2023-03-20T11:06:19.208Z,14.20
2023-03-20T11:08:49.434Z,14.30
2023-03-20T11:11:22.859Z,14.30
2023-03-20T11:13:51.379Z,14.20
2023-03-20T11:16:21.334Z,14.10
2023-03-20T11:18:52.451Z,14.20
2023-03-20T11:21:22.619Z,14.20
2023-03-20T11:23:51.702Z,14.20
2023-03-20T11:26:21.088Z,14.10
2023-03-20T11:28:51.462Z,14.00
2023-03-20T11:31:21.596Z,14.10
2023-03-20T11:33:54.044Z,14.10
2023-03-20T11:36:26.619Z,14.20
2023-03-20T11:39:00.280Z,14.30
2023-03-20T11:41:29.337Z,14.40
2023-03-20T11:43:57.733Z,14.20
2023-03-20T11:46:26.858Z,14.10
2023-03-20T11:49:07.667Z,14.20
2023-03-20T11:51:38.232Z,14.20
2023-03-20T11:54:08.310Z,14.20
2023-03-20T11:56:37.628Z,14.30
2023-03-20T11:59:14.510Z,14.40
2023-03-20T12:01:46.979Z,14.40
2023-03-20T12:04:17.320Z,14.30
2023-03-20T12:06:47.796Z,14.30
2023-03-20T12:09:25.795Z,14.40
2023-03-20T12:11:55.560Z,14.20
2023-03-20T12:14:26.760Z,14.30
2023-03-20T12:17:00.915Z,14.10
2023-03-20T12:19:31.493Z,14.20
2023-03-20T12:22:03.316Z,14.20
2023-03-20T12:24:36.767Z,14.20
2023-03-20T12:27:14.586Z,14.20
2023-03-20T12:29:47.857Z,14.30
2023-03-20T12:32:18.200Z,14.40
2023-03-20T12:34:49.994Z,14.40
2023-03-20T12:37:19.430Z,14.30
2023-03-20T12:39:51.140Z,14.20
2023-03-20T12:42:23.622Z,14.30
2023-03-20T12:44:55.930Z,14.40
2023-03-20T12:47:48.127Z,14.10
2023-03-20T12:50:23.475Z,14.20
2023-03-20T12:52:56.745Z,14.20
2023-03-20T12:55:33.870Z,14.10
2023-03-20T12:58:07.527Z,14.10
2023-03-20T13:00:39.131Z,14.10
2023-03-20T13:03:13.882Z,14.20
2023-03-20T13:05:46.187Z,14.10
2023-03-20T13:08:23.231Z,14.00
2023-03-20T13:10:58.426Z,14.00
2023-03-20T13:13:29.710Z,14.00
2023-03-20T13:16:02.378Z,13.90
2023-03-20T13:18:36.462Z,13.90
2023-03-20T13:21:10.700Z,14.00
2023-03-20T13:23:44.406Z,14.10
2023-03-20T13:26:17.446Z,14.10
2023-03-20T13:28:50.364Z,14.10
2023-03-20T13:31:24.955Z,14.00
2023-03-20T13:33:57.843Z,13.90
2023-03-20T13:36:36.511Z,13.90
2023-03-20T13:39:11.492Z,13.90
2023-03-20T13:41:40.431Z,13.80
2023-03-20T13:44:12.143Z,13.80
2023-03-20T13:46:42.794Z,13.80
2023-03-20T13:49:15.427Z,14.00
2023-03-20T13:51:54.823Z,14.20
2023-03-20T13:54:35.998Z,14.40
2023-03-20T13:57:12.047Z,14.30
2023-03-20T13:59:47.882Z,14.30
2023-03-20T14:02:22.269Z,14.40
2023-03-20T14:04:52.862Z,14.40
2023-03-20T14:07:33.802Z,14.30
2023-03-20T14:10:20.713Z,14.30
2023-03-20T14:12:49.691Z,14.30
2023-03-20T14:15:20.523Z,14.20
2023-03-20T14:17:50.108Z,14.20
2023-03-20T14:20:24.456Z,14.30
2023-03-20T14:22:54.274Z,14.50
2023-03-20T14:25:24.242Z,14.40
2023-03-20T14:27:56.943Z,14.40
2023-03-20T14:30:46.058Z,14.50
2023-03-20T14:33:27.822Z,14.40
2023-03-20T14:36:20.758Z,14.30
2023-03-20T14:39:00.748Z,14.20
2023-03-20T14:41:32.808Z,14.30
2023-03-20T14:44:07.601Z,14.30
2023-03-20T14:46:41.747Z,14.40
2023-03-20T14:49:23.967Z,14.30
2023-03-20T14:51:54.342Z,14.40
2023-03-20T14:54:28.015Z,14.40
2023-03-20T14:56:56.826Z,14.30
2023-03-20T14:59:25.696Z,14.20
2023-03-20T15:01:58.493Z,14.20
2023-03-20T15:04:31.474Z,14.30
2023-03-20T15:07:01.979Z,14.40
2023-03-20T15:09:32.790Z,14.30
2023-03-20T15:12:04.465Z,14.40
2023-03-20T15:14:35.180Z,14.30
2023-03-20T15:17:05.027Z,14.20
2023-03-20T15:19:33.754Z,14.10
2023-03-20T15:22:02.202Z,14.10
2023-03-20T15:24:32.322Z,14.00
2023-03-20T15:27:01.759Z,13.90
2023-03-20T15:29:30.960Z,13.90
2023-03-20T15:32:13.570Z,13.80
2023-03-20T15:34:43.674Z,13.80
2023-03-20T15:37:15.401Z,13.90
2023-03-20T15:39:46.105Z,14.10
2023-03-20T15:42:16.038Z,14.10
2023-03-20T15:44:45.975Z,14.10
2023-03-20T15:47:17.005Z,14.10
2023-03-20T15:49:50.872Z,14.00
2023-03-20T15:52:22.769Z,13.90
2023-03-20T15:54:52.696Z,13.80
2023-03-20T15:57:24.125Z,13.80
2023-03-20T15:59:52.877Z,13.80
2023-03-20T16:02:21.698Z,13.80
2023-03-20T16:04:52.287Z,13.70
2023-03-20T16:07:21.371Z,13.60
2023-03-20T16:09:50.864Z,13.50
2023-03-20T16:12:20.859Z,13.60
2023-03-20T16:14:49.828Z,13.60
2023-03-20T16:17:19.151Z,13.50
2023-03-20T16:19:47.677Z,13.40
2023-03-20T16:22:21.696Z,13.40
2023-03-20T16:24:51.776Z,13.40
2023-03-20T16:27:25.537Z,13.40
2023-03-20T16:29:54.423Z,13.40
2023-03-20T16:32:26.935Z,13.40
2023-03-20T16:34:57.240Z,13.50
2023-03-20T16:37:27.692Z,13.50
2023-03-20T16:40:19.859Z,13.50
2023-03-20T16:42:50.295Z,13.40
2023-03-20T16:45:23.438Z,13.40
2023-03-20T16:47:51.926Z,13.40
2023-03-20T16:50:22.121Z,13.40
2023-03-20T16:52:52.187Z,13.40
2023-03-20T16:55:24.183Z,13.30
2023-03-20T16:57:55.689Z,13.30
2023-03-20T17:00:28.676Z,13.30
2023-03-20T17:03:01.928Z,13.30
2023-03-20T17:05:57.106Z,13.40
2023-03-20T17:08:30.319Z,13.30
2023-03-20T17:11:00.409Z,13.30
2023-03-20T17:13:30.261Z,13.30
2023-03-20T17:15:59.336Z,13.30
2023-03-20T17:18:29.230Z,13.30
2023-03-20T17:20:57.673Z,13.30
2023-03-20T17:23:26.300Z,13.30
2023-03-20T17:25:55.184Z,13.30
2023-03-20T17:28:24.996Z,13.30
2023-03-20T17:30:54.772Z,13.30
2023-03-20T17:33:23.161Z,13.30
2023-03-20T17:35:52.913Z,13.20
2023-03-20T17:38:22.540Z,13.30
2023-03-20T17:40:51.667Z,13.30
2023-03-20T17:43:20.725Z,13.30
2023-03-20T17:45:49.505Z,13.30
2023-03-20T17:48:20.865Z,13.30
2023-03-20T17:50:51.040Z,13.30
2023-03-20T17:53:20.770Z,13.20
2023-03-20T17:55:49.146Z,13.20
2023-03-20T17:58:18.215Z,13.20
2023-03-20T18:00:46.702Z,13.20
2023-03-20T18:03:15.428Z,13.20
2023-03-20T18:05:45.978Z,13.10
2023-03-20T18:08:16.299Z,13.10
2023-03-20T18:10:45.021Z,13.20
2023-03-20T18:13:13.472Z,13.20
2023-03-20T18:15:42.024Z,13.20
2023-03-20T18:18:10.717Z,13.20
2023-03-20T18:20:41.188Z,13.20
2023-03-20T18:23:11.044Z,13.10
2023-03-20T18:25:39.634Z,13.10
2023-03-20T18:28:09.686Z,13.10
2023-03-20T18:30:39.075Z,13.10
2023-03-20T18:33:07.973Z,13.10
2023-03-20T18:35:36.751Z,13.10
2023-03-20T18:38:05.609Z,13.10
2023-03-20T18:40:37.200Z,13.10
2023-03-20T18:43:05.884Z,13.20
2023-03-20T18:45:34.381Z,13.30
2023-03-20T18:48:03.928Z,13.20
2023-03-20T18:50:35.736Z,13.20
2023-03-20T18:53:06.682Z,13.20
2023-03-20T18:55:36.895Z,13.20
2023-03-20T18:58:06.413Z,13.20
2023-03-20T19:00:38.394Z,13.20
2023-03-20T19:03:07.509Z,13.30
2023-03-20T19:05:36.059Z,13.30
2023-03-20T19:08:04.775Z,13.40
2023-03-20T19:10:35.896Z,13.30
2023-03-20T19:13:06.788Z,13.40
2023-03-20T19:15:36.636Z,13.30
2023-03-20T19:18:05.616Z,13.30
2023-03-20T19:20:36.273Z,13.40
2023-03-20T19:23:05.335Z,13.40
2023-03-20T19:25:34.158Z,13.40
2023-03-20T19:28:03.015Z,13.50
2023-03-20T19:30:33.500Z,13.60
2023-03-20T19:33:02.079Z,13.50
2023-03-20T19:35:54.570Z,13.60
2023-03-20T19:38:20.813Z,13.60
2023-03-20T19:40:51.568Z,13.60
2023-03-20T19:43:21.499Z,13.50
2023-03-20T19:45:56.016Z,13.50
2023-03-20T19:48:27.368Z,13.40
2023-03-20T19:50:56.805Z,13.40
2023-03-20T19:53:27.929Z,13.40
2023-03-20T19:55:56.766Z,13.40
2023-03-20T19:58:25.195Z,13.50
2023-03-20T20:00:58.448Z,13.50
2023-03-20T20:03:28.153Z,13.50
2023-03-20T20:05:56.868Z,13.60
2023-03-20T20:08:43.006Z,13.60
2023-03-20T20:11:15.085Z,13.50
2023-03-20T20:14:04.285Z,13.50
2023-03-20T20:16:33.813Z,13.40
2023-03-20T20:19:02.668Z,13.40
2023-03-20T20:24:19.556Z,13.30
2023-03-20T20:26:54.434Z,13.30
2023-03-20T20:29:25.677Z,13.30
2023-03-20T20:31:55.568Z,13.30
2023-03-20T20:37:51.723Z,13.40
2023-03-20T20:40:00.848Z,13.30
2023-03-20T20:42:29.409Z,13.30
2023-03-20T20:44:57.898Z,13.30
2023-03-20T20:47:27.860Z,13.30
2023-03-20T20:49:56.556Z,13.50
2023-03-20T20:52:25.091Z,13.50
2023-03-20T20:54:53.558Z,13.60
2023-03-20T20:57:22.011Z,13.60
2023-03-20T20:59:53.136Z,13.60
2023-03-20T21:02:21.626Z,13.60
2023-03-20T21:04:51.687Z,13.60
2023-03-20T21:07:20.846Z,13.60
2023-03-20T21:09:49.549Z,13.50
2023-03-20T21:12:32.816Z,13.50
2023-03-20T21:15:03.547Z,13.50
2023-03-20T21:17:32.000Z,13.50
2023-03-20T21:20:01.864Z,13.50
2023-03-20T21:22:30.433Z,13.40
2023-03-20T21:25:13.820Z,13.40
2023-03-20T21:27:43.356Z,13.40
2023-03-20T21:30:12.567Z,13.40
2023-03-20T21:32:41.062Z,13.40
2023-03-20T21:35:11.290Z,13.40
2023-03-20T21:40:28.054Z,13.50
2023-03-20T21:42:57.901Z,13.50
2023-03-20T21:46:18.790Z,13.50
2023-03-20T21:49:06.889Z,13.60
2023-03-20T21:52:24.732Z,13.50
2023-03-20T21:57:20.514Z,13.50
2023-03-20T22:00:11.164Z,13.50
2023-03-20T22:02:25.299Z,13.50
2023-03-20T22:08:28.108Z,13.40
2023-03-20T22:25:31.545Z,13.40
2023-03-20T22:36:39.980Z,13.60
2023-03-20T22:42:24.272Z,13.60
2023-03-20T22:47:09.801Z,13.60
2023-03-20T22:49:38.245Z,13.40
2023-03-20T22:52:23.069Z,13.40
2023-03-20T22:54:55.027Z,13.30
2023-03-20T22:57:38.472Z,13.20
2023-03-20T23:00:10.566Z,13.30
2023-03-20T23:02:39.001Z,13.20
2023-03-20T23:05:08.222Z,13.20
2023-03-20T23:07:37.860Z,13.20
2023-03-20T23:10:07.426Z,13.20
2023-03-20T23:12:37.465Z,13.20
2023-03-20T23:15:06.597Z,13.20
2023-03-20T23:17:35.001Z,13.20
2023-03-20T23:20:11.367Z,13.20
2023-03-20T23:22:40.678Z,13.20
2023-03-20T23:25:20.684Z,13.20
2023-03-20T23:27:53.674Z,13.20
2023-03-20T23:30:25.321Z,13.20
2023-03-20T23:32:55.914Z,13.20
2023-03-20T23:35:24.372Z,13.20
2023-03-20T23:37:52.829Z,13.20
2023-03-20T23:40:21.370Z,13.20
2023-03-20T23:42:49.741Z,13.30
2023-03-20T23:45:21.102Z,13.20
2023-03-20T23:47:49.874Z,13.20
2023-03-20T23:50:28.623Z,13.20
2023-03-20T23:53:09.550Z,13.20
2023-03-20T23:55:42.756Z,13.10
2023-03-20T23:58:11.223Z,13.20
